createdAt,value
2023-04-28T00:04:04.669Z,98915.56
2023-04-28T00:09:26.451Z,98919.63
2023-04-28T00:14:48.184Z,98916.44
2023-04-28T00:20:11.006Z,98918.05
2023-04-28T00:25:33.284Z,98917.63
2023-04-28T00:30:55.265Z,98909.38
2023-04-28T00:36:20.104Z,98909.46
2023-04-28T00:41:41.535Z,98911.39
2023-04-28T00:47:03.466Z,98911.58
2023-04-28T00:52:25.194Z,98905.16
2023-04-28T00:57:46.654Z,98907.12
2023-04-28T01:03:08.953Z,98904.25
2023-04-28T01:08:31.911Z,98914.05
2023-04-28T01:13:54.653Z,98915.86
2023-04-28T01:19:23.842Z,98916.63
2023-04-28T01:24:46.633Z,98915.38
2023-04-28T01:30:11.544Z,98912.64
2023-04-28T01:35:34.153Z,98906.95
2023-04-28T01:40:56.706Z,98904.61
2023-04-28T01:46:18.253Z,98910.88
2023-04-28T01:51:41.067Z,98911.52
2023-04-28T01:57:03.400Z,98911.46
2023-04-28T02:02:26.189Z,98914.13
2023-04-28T02:07:48.058Z,98907.25
2023-04-28T02:13:09.681Z,98904.20
2023-04-28T02:18:31.818Z,98904.86
2023-04-28T02:23:55.249Z,98902.77
2023-04-28T02:29:20.486Z,98901.38
2023-04-28T02:34:42.014Z,98895.85
2023-04-28T02:40:03.670Z,98891.14
2023-04-28T02:45:26.278Z,98882.61
2023-04-28T02:50:48.304Z,98883.53
2023-04-28T02:56:10.538Z,98889.02
2023-04-28T03:01:32.159Z,98885.52
2023-04-28T03:06:54.093Z,98883.23
2023-04-28T03:12:15.938Z,98881.00
2023-04-28T03:17:39.327Z,98880.23
2023-04-28T03:23:02.864Z,98880.02
2023-04-28T03:28:25.227Z,98883.52
2023-04-28T03:33:47.954Z,98884.77
2023-04-28T03:39:11.798Z,98888.05
2023-04-28T03:44:33.422Z,98884.23
2023-04-28T03:49:55.853Z,98877.88
2023-04-28T03:55:18.181Z,98872.79
2023-04-28T04:00:40.916Z,98878.77
2023-04-28T04:06:03.341Z,98885.41
2023-04-28T04:11:25.282Z,98885.16
2023-04-28T04:16:50.831Z,98892.91
2023-04-28T04:22:13.348Z,98894.51
2023-04-28T04:27:34.975Z,98900.33
2023-04-28T04:32:56.858Z,98905.71
2023-04-28T04:38:18.945Z,98902.16
2023-04-28T04:43:42.372Z,98899.98
2023-04-28T04:49:05.699Z,98898.98
2023-04-28T04:54:27.530Z,98899.71
2023-04-28T04:59:52.871Z,98900.93
2023-04-28T05:05:21.093Z,98892.89
2023-04-28T05:10:47.695Z,98895.90
2023-04-28T05:16:09.833Z,98899.41
2023-04-28T05:21:54.871Z,98901.32
2023-04-28T05:27:17.676Z,98903.32
2023-04-28T05:32:39.684Z,98898.84
2023-04-28T05:38:04.649Z,98904.20
2023-04-28T05:43:26.851Z,98900.56
2023-04-28T05:48:54.993Z,98895.83
2023-04-28T05:54:17.273Z,98887.95
2023-04-28T05:59:42.282Z,98894.14
2023-04-28T06:05:04.290Z,98897.77
2023-04-28T06:10:27.149Z,98894.08
2023-04-28T06:15:48.777Z,98899.11
2023-04-28T06:21:10.475Z,98893.75
2023-04-28T06:26:32.816Z,98888.58
2023-04-28T06:31:57.969Z,98886.55
2023-04-28T06:37:20.188Z,98885.50
2023-04-28T06:42:42.817Z,98883.08
2023-04-28T06:48:13.639Z,98883.80
2023-04-28T06:53:35.112Z,98884.73
2023-04-28T06:58:57.434Z,98878.41
2023-04-28T07:04:19.901Z,98871.52
2023-04-28T07:09:42.002Z,98867.30
2023-04-28T07:15:03.708Z,98858.48
2023-04-28T07:20:25.619Z,98851.72
2023-04-28T07:25:49.797Z,98854.39
2023-04-28T07:31:11.829Z,98851.92
2023-04-28T07:36:34.657Z,98847.45
2023-04-28T07:42:00.453Z,98845.34
2023-04-28T07:47:22.428Z,98838.80
2023-04-28T07:52:45.168Z,98834.16
2023-04-28T07:58:06.890Z,98837.55
2023-04-28T08:03:29.024Z,98826.12
2023-04-28T08:08:50.746Z,98823.36
2023-04-28T08:14:12.974Z,98822.40
2023-04-28T08:19:35.512Z,98819.65
2023-04-28T08:25:00.050Z,98813.80
2023-04-28T08:30:22.329Z,98804.48
2023-04-28T08:35:44.603Z,98808.64
2023-04-28T08:41:06.338Z,98801.05
2023-04-28T08:46:29.096Z,98795.52
2023-04-28T08:52:03.053Z,98796.55
2023-04-28T08:57:27.713Z,98792.22
2023-04-28T09:02:50.346Z,98785.84
2023-04-28T09:08:12.671Z,98781.48
2023-04-28T09:13:35.039Z,98772.52
2023-04-28T09:18:58.207Z,98778.67
2023-04-28T09:24:47.641Z,98772.54
2023-04-28T09:30:10.196Z,98771.88
2023-04-28T09:35:48.483Z,98765.14
2023-04-28T09:41:09.788Z,98760.11
2023-04-28T09:46:31.765Z,98753.34
2023-04-28T09:52:12.375Z,98748.25
2023-04-28T09:57:35.936Z,98734.76
2023-04-28T10:03:00.000Z,98721.73
2023-04-28T10:08:24.967Z,98719.13
2023-04-28T10:13:46.444Z,98713.08
2023-04-28T10:19:09.185Z,98707.77
2023-04-28T10:24:31.414Z,98697.77
2023-04-28T10:29:52.935Z,98686.27
2023-04-28T10:35:33.166Z,98689.81
2023-04-28T10:40:54.756Z,98680.77
2023-04-28T10:46:16.895Z,98671.45
2023-04-28T10:51:38.416Z,98661.02
2023-04-28T10:57:17.219Z,98655.17
2023-04-28T11:02:43.646Z,98647.96
2023-04-28T11:08:18.432Z,98642.98
2023-04-28T11:13:42.340Z,98630.02
2023-04-28T11:19:05.083Z,98617.33
2023-04-28T11:24:29.475Z,98608.61
2023-04-28T11:29:50.978Z,98612.02
2023-04-28T11:35:12.782Z,98613.20
2023-04-28T11:40:34.232Z,98608.39
2023-04-28T11:45:56.467Z,98606.55
2023-04-28T11:51:34.795Z,98603.55
2023-04-28T11:56:57.698Z,98600.05
2023-04-28T12:02:30.858Z,98596.11
2023-04-28T12:07:54.088Z,98588.48
2023-04-28T12:13:17.492Z,98586.48
2023-04-28T12:18:59.048Z,98582.35
2023-04-28T12:24:22.000Z,98574.41
2023-04-28T12:29:46.592Z,98566.07
2023-04-28T12:35:09.199Z,98556.11
2023-04-28T12:40:30.829Z,98545.20
2023-04-28T12:45:56.415Z,98537.52
2023-04-28T12:51:18.512Z,98530.52
2023-04-28T12:56:40.436Z,98528.38
2023-04-28T13:02:02.508Z,98522.89
2023-04-28T13:07:24.494Z,98515.31
2023-04-28T13:12:46.231Z,98505.84
2023-04-28T13:18:08.167Z,98497.23
2023-04-28T13:23:30.888Z,98490.93
2023-04-28T13:28:52.812Z,98488.23
2023-04-28T13:34:18.942Z,98478.00
2023-04-28T13:39:41.093Z,98473.25
2023-04-28T13:45:04.419Z,98468.02
2023-04-28T13:50:26.868Z,98459.41
2023-04-28T13:55:51.327Z,98451.67
2023-04-28T14:01:12.836Z,98454.13
2023-04-28T14:06:35.055Z,98448.17
2023-04-28T14:11:58.582Z,98447.30
2023-04-28T14:17:20.358Z,98444.16
2023-04-28T14:22:42.129Z,98442.91
2023-04-28T14:28:03.965Z,98442.05
2023-04-28T14:33:25.808Z,98437.64
2023-04-28T14:38:47.521Z,98431.33
2023-04-28T14:44:09.544Z,98423.98
2023-04-28T14:49:31.379Z,98426.76
2023-04-28T14:54:54.353Z,98429.42
2023-04-28T15:00:16.960Z,98428.44
2023-04-28T15:05:39.534Z,98430.48
2023-04-28T15:11:01.211Z,98427.77
2023-04-28T15:16:22.745Z,98413.69
2023-04-28T15:21:46.166Z,98414.23
2023-04-28T15:27:08.049Z,98411.20
2023-04-28T15:32:31.849Z,98402.77
2023-04-28T15:37:55.577Z,98398.26
2023-04-28T15:43:17.619Z,98389.61
2023-04-28T15:48:39.832Z,98385.42
2023-04-28T15:54:01.767Z,98382.66
2023-04-28T15:59:24.654Z,98373.11
2023-04-28T16:04:47.051Z,98370.96
2023-04-28T16:10:13.746Z,98367.98
2023-04-28T16:15:35.798Z,98366.06
2023-04-28T16:20:57.524Z,98367.19
2023-04-28T16:26:19.556Z,98364.77
2023-04-28T16:31:41.119Z,98358.23
2023-04-28T16:37:03.648Z,98350.33
2023-04-28T16:42:25.367Z,98344.35
2023-04-28T16:47:47.310Z,98347.21
2023-04-28T16:53:09.505Z,98343.08
2023-04-28T16:58:31.736Z,98335.65
2023-04-28T17:03:53.767Z,98334.73
2023-04-28T17:09:17.698Z,98332.37
2023-04-28T17:14:39.430Z,98330.45
2023-04-28T17:20:02.414Z,98329.44
2023-04-28T17:25:24.493Z,98332.14
2023-04-28T17:30:47.591Z,98334.47
2023-04-28T17:36:09.653Z,98344.20
2023-04-28T17:41:32.020Z,98348.38
2023-04-28T17:46:53.796Z,98349.94
2023-04-28T17:52:16.265Z,98354.05
2023-04-28T17:57:38.108Z,98356.05
2023-04-28T18:03:01.561Z,98354.45
2023-04-28T18:08:23.653Z,98355.10
2023-04-28T18:13:46.181Z,98357.79
2023-04-28T18:19:08.462Z,98358.90
2023-04-28T18:24:30.624Z,98358.62
2023-04-28T18:29:52.264Z,98359.17
2023-04-28T18:35:15.171Z,98360.94
2023-04-28T18:40:38.767Z,98363.05
2023-04-28T18:46:04.385Z,98369.69
2023-04-28T18:51:26.304Z,98372.70
2023-04-28T18:56:48.139Z,98382.30
2023-04-28T19:02:09.984Z,98383.56
2023-04-28T19:07:32.960Z,98387.08
2023-04-28T19:12:56.167Z,98387.81
2023-04-28T19:18:18.054Z,98384.58
2023-04-28T19:23:40.881Z,98386.67
2023-04-28T19:29:03.819Z,98384.25
2023-04-28T19:34:25.850Z,98383.38
2023-04-28T19:39:52.822Z,98374.95
2023-04-28T19:45:17.121Z,98371.16
2023-04-28T19:50:38.670Z,98366.73
2023-04-28T19:56:02.178Z,98363.33
2023-04-28T20:01:24.156Z,98359.02
2023-04-28T20:06:46.529Z,98351.48
2023-04-28T20:12:09.230Z,98353.92
2023-04-28T20:17:31.562Z,98346.55
2023-04-28T20:22:53.156Z,98347.23
2023-04-28T20:28:15.097Z,98350.52
2023-04-28T20:33:36.785Z,98351.02
2023-04-28T20:38:58.742Z,98351.34
2023-04-28T20:44:20.679Z,98355.46
2023-04-28T20:49:42.390Z,98355.10
2023-04-28T20:55:04.550Z,98348.89
2023-04-28T21:00:26.375Z,98347.52
2023-04-28T21:05:48.291Z,98342.71
2023-04-28T21:11:13.828Z,98339.77
2023-04-28T21:16:36.343Z,98340.94
2023-04-28T21:21:58.794Z,98342.11
2023-04-28T21:27:20.827Z,98339.88
2023-04-28T21:32:43.873Z,98333.34
2023-04-28T21:38:06.387Z,98331.79
2023-04-28T21:43:28.654Z,98328.52
2023-04-28T21:48:50.049Z,98329.58
2023-04-28T21:54:12.476Z,98325.46
2023-04-28T21:59:34.461Z,98328.60
2023-04-28T22:04:56.340Z,98323.77
2023-04-28T22:10:19.195Z,98323.45
2023-04-28T22:15:43.303Z,98322.26
2023-04-28T22:21:07.041Z,98317.79
2023-04-28T22:26:30.472Z,98309.51
2023-04-28T22:31:53.481Z,98307.10
2023-04-28T22:37:16.536Z,98301.77
2023-04-28T22:42:40.633Z,98300.04
2023-04-28T22:48:02.341Z,98297.63
2023-04-28T22:53:24.437Z,98296.95
2023-04-28T22:58:47.159Z,98290.76
2023-04-28T23:04:09.397Z,98291.60
2023-04-28T23:09:36.256Z,98288.31
2023-04-28T23:14:57.983Z,98283.79
2023-04-28T23:20:19.897Z,98282.56
2023-04-28T23:25:43.098Z,98277.73
2023-04-28T23:31:05.134Z,98274.45
2023-04-28T23:36:29.199Z,98269.98
2023-04-28T23:41:51.430Z,98266.19
2023-04-28T23:47:14.558Z,98254.14
2023-04-28T23:52:40.525Z,98249.83
2023-04-28T23:58:02.033Z,98246.55
